Sunday, April 22, 2018, 9:47 PM EDT
Back to Local

KFVE, Northern Aroostook Regional

Location: Saint Agatha, ME, United States Lat: 47.283
Local Time: 9:47 PM EDT ( 1:47 GMT) Lon: -68.3
Time Zone: US/Eastern Elev: 987 ft

Show me the last for .
Show Decoded

2018-04-22 20:53 METAR KFVE 230053Z AUTO 31007KT 10SM CLR 06/M11 A3027 RMK AO2 SLP259 T00561111 =
2018-04-22 19:53 METAR KFVE 222353Z AUTO 32007KT 10SM CLR 06/M11 A3025 RMK AO2 SLP252 T00611111
                 10078 20061 53005 =
2018-04-22 18:53 METAR KFVE 222253Z AUTO 32010KT 10SM CLR 07/M11 A3024 RMK AO2 SLP247 T00721111 =
2018-04-22 17:53 METAR KFVE 222153Z AUTO 32008KT 10SM CLR 08/M12 A3023 RMK AO2 SLP246 T00781117 =
2018-04-22 16:53 METAR KFVE 222053Z AUTO 30015G22KT 10SM CLR 07/M12 A3024 RMK AO2 SLP247
                 T00721117 50002 =
2018-04-22 15:53 METAR KFVE 221953Z AUTO 33016G20KT 10SM CLR 07/M13 A3024 RMK AO2 SLP247
                 T00721128 =
2018-04-22 14:53 METAR KFVE 221853Z AUTO 33014G17KT 10SM CLR 07/M12 A3024 RMK AO2 SLP246
                 T00671117 =
2018-04-22 13:53 METAR KFVE 221753Z AUTO 32013G18KT 10SM CLR 07/M11 A3023 RMK AO2 SLP245
                 T00671111 10067 20011 56001 =
2018-04-22 12:53 METAR KFVE 221653Z AUTO 31015G20KT 10SM CLR 06/M11 A3023 RMK AO2 SLP245
                 T00561111 =
2018-04-22 11:53 METAR KFVE 221553Z AUTO 32009KT 10SM CLR 05/M11 A3023 RMK AO2 SLP246 T00501111 =
2018-04-22 10:53 METAR KFVE 221453Z AUTO 33012KT 10SM CLR 04/M11 A3024 RMK AO2 SLP246 T00391106
                 50004 =
2018-04-22 09:53 METAR KFVE 221353Z AUTO 33015KT 10SM CLR 03/M11 A3024 RMK AO2 SLP246 T00331106 =
2018-04-22 08:53 METAR KFVE 221253Z AUTO 34013KT 10SM CLR 02/M10 A3023 RMK AO2 SLP244 T00221100 =
2018-04-22 07:53 METAR KFVE 221153Z AUTO 32014G18KT 10SM CLR 01/M09 A3022 RMK AO2 SLP243
                 T00111094 10011 21017 51016 =
2018-04-22 06:53 METAR KFVE 221053Z AUTO 33011KT 10SM CLR M01/M09 A3021 RMK AO2 SLP239 T10061094
                 =
2018-04-22 05:53 METAR KFVE 220953Z AUTO 32008KT 10SM CLR M01/M09 A3020 RMK AO2 SLP234 T10111094
                 =
2018-04-22 04:53 METAR KFVE 220853Z AUTO 34004KT 10SM CLR M01/M09 A3017 RMK AO2 SLP226 T10061089
                 53009 =
2018-04-22 03:53 METAR KFVE 220753Z AUTO 32007KT 10SM CLR 00/M09 A3016 RMK AO2 SLP222 T00001089 =
2018-04-22 02:53 METAR KFVE 220653Z AUTO 33008KT 10SM FEW120 01/M08 A3015 RMK AO2 SLP218
                 T00061083 =
2018-04-22 01:53 METAR KFVE 220553Z AUTO 32008KT 10SM BKN120 01/M08 A3015 RMK AO2 SLP216
                 T00111078 10044 20006 50003 =
2018-04-22 00:53 METAR KFVE 220453Z AUTO 33005KT 10SM CLR 01/M08 A3015 RMK AO2 SLP217 T00111078
                 400671006 =
2018-04-21 22:53 METAR KFVE 220253Z AUTO 30005KT 10SM BKN100 03/M07 A3014 RMK AO2 SLP213
                 T00281072 50006 =
2018-04-21 21:53 METAR KFVE 220153Z AUTO 33006KT 10SM CLR 03/M07 A3014 RMK AO2 SLP215 T00281067 =

Support USWX by starting your Amazon purchase here.